sensor_id;sensor_type;location;lat;lon;timestamp;pressure;altitude;pressure_sealevel;temperature;humidity
45441;BME280;31189;38.790;-77.084;2022-12-31T00:00:46;102060.47;;;13.31;56.76
45441;BME280;31189;38.790;-77.084;2022-12-31T00:03:15;102061.85;;;13.95;57.06
45441;BME280;31189;38.790;-77.084;2022-12-31T00:05:44;102064.54;;;14.18;54.28
45441;BME280;31189;38.790;-77.084;2022-12-31T00:08:12;102062.44;;;14.01;55.13
45441;BME280;31189;38.790;-77.084;2022-12-31T00:10:39;102064.37;;;13.86;55.34
45441;BME280;31189;38.790;-77.084;2022-12-31T00:13:08;102062.17;;;14.84;54.05
45441;BME280;31189;38.790;-77.084;2022-12-31T00:15:37;102059.16;;;13.73;56.50
45441;BME280;31189;38.790;-77.084;2022-12-31T00:18:05;102062.34;;;14.01;57.31
45441;BME280;31189;38.790;-77.084;2022-12-31T00:20:37;102061.30;;;14.53;54.91
45441;BME280;31189;38.790;-77.084;2022-12-31T00:23:05;102057.04;;;14.14;54.56
45441;BME280;31189;38.790;-77.084;2022-12-31T00:25:34;102053.16;;;13.00;62.04
45441;BME280;31189;38.790;-77.084;2022-12-31T00:28:03;102051.75;;;13.54;60.09
45441;BME280;31189;38.790;-77.084;2022-12-31T00:30:32;102045.41;;;13.59;58.89
45441;BME280;31189;38.790;-77.084;2022-12-31T00:33:00;102043.56;;;13.50;59.58
45441;BME280;31189;38.790;-77.084;2022-12-31T00:35:28;102041.27;;;13.40;59.47
45441;BME280;31189;38.790;-77.084;2022-12-31T00:37:55;102037.62;;;13.12;61.23
45441;BME280;31189;38.790;-77.084;2022-12-31T00:40:23;102040.21;;;13.69;58.68
45441;BME280;31189;38.790;-77.084;2022-12-31T00:42:50;102039.85;;;13.71;58.02
45441;BME280;31189;38.790;-77.084;2022-12-31T00:45:17;102042.74;;;13.55;60.12
45441;BME280;31189;38.790;-77.084;2022-12-31T00:47:45;102041.87;;;13.01;62.99
45441;BME280;31189;38.790;-77.084;2022-12-31T00:50:14;102040.59;;;12.94;64.12
45441;BME280;31189;38.790;-77.084;2022-12-31T00:52:42;102041.14;;;13.64;62.54
45441;BME280;31189;38.790;-77.084;2022-12-31T00:55:10;102039.81;;;12.79;65.50
45441;BME280;31189;38.790;-77.084;2022-12-31T00:57:38;102038.40;;;13.13;64.35
45441;BME280;31189;38.790;-77.084;2022-12-31T01:00:07;102037.05;;;13.44;65.77
45441;BME280;31189;38.790;-77.084;2022-12-31T01:02:36;102035.51;;;13.34;65.14
45441;BME280;31189;38.790;-77.084;2022-12-31T01:05:04;102034.13;;;12.71;71.66
45441;BME280;31189;38.790;-77.084;2022-12-31T01:07:33;102030.12;;;12.82;70.95
45441;BME280;31189;38.790;-77.084;2022-12-31T01:10:01;102029.01;;;13.48;66.09
45441;BME280;31189;38.790;-77.084;2022-12-31T01:12:28;102027.67;;;13.35;65.69
45441;BME280;31189;38.790;-77.084;2022-12-31T01:14:56;102028.46;;;12.94;66.77
45441;BME280;31189;38.790;-77.084;2022-12-31T01:17:24;102032.11;;;13.39;65.90
45441;BME280;31189;38.790;-77.084;2022-12-31T01:19:53;102033.55;;;13.65;65.98
45441;BME280;31189;38.790;-77.084;2022-12-31T01:22:20;102038.07;;;12.49;69.44
45441;BME280;31189;38.790;-77.084;2022-12-31T01:24:48;102037.71;;;12.10;73.89
45441;BME280;31189;38.790;-77.084;2022-12-31T01:27:16;102033.61;;;13.56;69.76
45441;BME280;31189;38.790;-77.084;2022-12-31T01:29:43;102029.58;;;13.55;64.65
45441;BME280;31189;38.790;-77.084;2022-12-31T01:32:11;102027.39;;;13.71;66.09
45441;BME280;31189;38.790;-77.084;2022-12-31T01:34:39;102026.05;;;13.20;67.07
45441;BME280;31189;38.790;-77.084;2022-12-31T01:37:07;102021.68;;;13.27;69.91
45441;BME280;31189;38.790;-77.084;2022-12-31T01:39:40;102021.67;;;13.02;70.03
45441;BME280;31189;38.790;-77.084;2022-12-31T01:42:13;102022.04;;;13.77;68.00
45441;BME280;31189;38.790;-77.084;2022-12-31T01:44:51;102015.87;;;13.29;68.36
45441;BME280;31189;38.790;-77.084;2022-12-31T01:47:34;102012.30;;;14.63;66.66
45441;BME280;31189;38.790;-77.084;2022-12-31T01:50:17;102010.54;;;14.17;67.68
45441;BME280;31189;38.790;-77.084;2022-12-31T01:52:53;102004.65;;;13.16;68.71
45441;BME280;31189;38.790;-77.084;2022-12-31T01:55:29;102002.30;;;12.79;72.53
45441;BME280;31189;38.790;-77.084;2022-12-31T01:58:07;102002.31;;;13.65;67.34
45441;BME280;31189;38.790;-77.084;2022-12-31T02:00:47;101997.77;;;14.25;64.90
45441;BME280;31189;38.790;-77.084;2022-12-31T02:03:21;101994.91;;;13.79;63.89
45441;BME280;31189;38.790;-77.084;2022-12-31T02:06:05;101993.13;;;13.72;69.23
45441;BME280;31189;38.790;-77.084;2022-12-31T02:08:45;101990.22;;;13.17;72.83
45441;BME280;31189;38.790;-77.084;2022-12-31T02:11:23;101987.05;;;13.18;69.64
45441;BME280;31189;38.790;-77.084;2022-12-31T02:14:07;101981.57;;;12.34;79.71
45441;BME280;31189;38.790;-77.084;2022-12-31T02:16:52;101976.42;;;13.18;76.96
45441;BME280;31189;38.790;-77.084;2022-12-31T02:20:40;101976.75;;;13.21;86.09
45441;BME280;31189;38.790;-77.084;2022-12-31T02:23:30;101975.52;;;11.82;87.11
45441;BME280;31189;38.790;-77.084;2022-12-31T02:26:30;101981.16;;;12.22;89.78
45441;BME280;31189;38.790;-77.084;2022-12-31T02:29:32;101982.96;;;12.87;82.88
45441;BME280;31189;38.790;-77.084;2022-12-31T02:32:11;101984.73;;;13.61;78.12
45441;BME280;31189;38.790;-77.084;2022-12-31T02:34:53;101983.96;;;14.06;75.57
45441;BME280;31189;38.790;-77.084;2022-12-31T02:37:29;101980.40;;;13.28;77.40
45441;BME280;31189;38.790;-77.084;2022-12-31T02:40:08;101982.57;;;14.80;68.20
45441;BME280;31189;38.790;-77.084;2022-12-31T02:42:43;101979.56;;;14.21;67.66
45441;BME280;31189;38.790;-77.084;2022-12-31T02:45:25;101976.72;;;14.32;69.10
45441;BME280;31189;38.790;-77.084;2022-12-31T02:48:15;101977.97;;;15.12;63.27
45441;BME280;31189;38.790;-77.084;2022-12-31T02:51:01;101976.69;;;14.32;64.52
45441;BME280;31189;38.790;-77.084;2022-12-31T02:53:54;101975.01;;;12.87;69.33
45441;BME280;31189;38.790;-77.084;2022-12-31T02:56:37;101979.67;;;12.90;71.25
45441;BME280;31189;38.790;-77.084;2022-12-31T02:59:14;101974.06;;;11.85;78.22
45441;BME280;31189;38.790;-77.084;2022-12-31T03:01:49;101971.07;;;11.98;85.85
45441;BME280;31189;38.790;-77.084;2022-12-31T03:04:25;101970.50;;;13.31;75.11
45441;BME280;31189;38.790;-77.084;2022-12-31T03:07:00;101971.31;;;12.66;81.54
45441;BME280;31189;38.790;-77.084;2022-12-31T03:09:27;101972.19;;;12.17;91.70
45441;BME280;31189;38.790;-77.084;2022-12-31T03:12:02;101971.15;;;12.66;94.72
45441;BME280;31189;38.790;-77.084;2022-12-31T03:14:41;101963.15;;;13.94;80.71
45441;BME280;31189;38.790;-77.084;2022-12-31T03:17:14;101957.65;;;13.71;77.85
45441;BME280;31189;38.790;-77.084;2022-12-31T03:19:47;101955.23;;;14.01;70.59
45441;BME280;31189;38.790;-77.084;2022-12-31T03:22:20;101959.54;;;13.90;71.55
45441;BME280;31189;38.790;-77.084;2022-12-31T03:25:02;101965.74;;;13.96;72.56
45441;BME280;31189;38.790;-77.084;2022-12-31T03:27:35;101971.33;;;13.27;71.43
45441;BME280;31189;38.790;-77.084;2022-12-31T03:30:15;101976.55;;;14.00;72.38
45441;BME280;31189;38.790;-77.084;2022-12-31T03:32:50;101974.24;;;13.23;74.08
45441;BME280;31189;38.790;-77.084;2022-12-31T03:35:19;101974.03;;;13.14;73.39
45441;BME280;31189;38.790;-77.084;2022-12-31T03:37:53;101975.81;;;13.44;70.55
45441;BME280;31189;38.790;-77.084;2022-12-31T03:40:35;101973.70;;;13.85;73.35
45441;BME280;31189;38.790;-77.084;2022-12-31T03:43:09;101968.86;;;12.39;83.61
45441;BME280;31189;38.790;-77.084;2022-12-31T03:45:48;101973.44;;;13.25;83.15
45441;BME280;31189;38.790;-77.084;2022-12-31T03:48:22;101971.67;;;12.69;86.00
45441;BME280;31189;38.790;-77.084;2022-12-31T03:50:55;101970.88;;;13.58;75.71
45441;BME280;31189;38.790;-77.084;2022-12-31T03:53:24;101973.69;;;12.92;76.85
45441;BME280;31189;38.790;-77.084;2022-12-31T03:56:02;101977.53;;;13.43;74.27
45441;BME280;31189;38.790;-77.084;2022-12-31T03:58:35;101987.81;;;12.94;79.34
45441;BME280;31189;38.790;-77.084;2022-12-31T04:01:08;101990.15;;;11.87;99.43
45441;BME280;31189;38.790;-77.084;2022-12-31T04:03:41;101986.97;;;11.93;100.00
45441;BME280;31189;38.790;-77.084;2022-12-31T04:06:18;101987.80;;;12.78;100.00
45441;BME280;31189;38.790;-77.084;2022-12-31T04:08:51;101988.20;;;12.90;95.54
45441;BME280;31189;38.790;-77.084;2022-12-31T04:11:24;101983.08;;;12.88;93.37
45441;BME280;31189;38.790;-77.084;2022-12-31T04:13:56;101983.11;;;13.25;99.28
45441;BME280;31189;38.790;-77.084;2022-12-31T04:16:29;101979.33;;;12.12;100.00
45441;BME280;31189;38.790;-77.084;2022-12-31T04:19:06;101977.71;;;13.50;91.79
45441;BME280;31189;38.790;-77.084;2022-12-31T04:21:35;101971.99;;;13.07;87.28
45441;BME280;31189;38.790;-77.084;2022-12-31T04:24:08;101968.57;;;12.75;93.85
45441;BME280;31189;38.790;-77.084;2022-12-31T04:26:37;101964.28;;;13.37;84.83
45441;BME280;31189;38.790;-77.084;2022-12-31T04:29:10;101958.85;;;12.89;86.50
45441;BME280;31189;38.790;-77.084;2022-12-31T04:31:43;101953.54;;;11.74;100.00
45441;BME280;31189;38.790;-77.084;2022-12-31T04:34:16;101957.59;;;13.35;89.48
45441;BME280;31189;38.790;-77.084;2022-12-31T04:36:53;101953.33;;;13.95;81.81
45441;BME280;31189;38.790;-77.084;2022-12-31T04:39:27;101953.57;;;13.47;76.10
45441;BME280;31189;38.790;-77.084;2022-12-31T04:42:00;101956.30;;;13.70;80.37
45441;BME280;31189;38.790;-77.084;2022-12-31T04:44:32;101953.35;;;12.85;77.05
45441;BME280;31189;38.790;-77.084;2022-12-31T04:47:05;101955.24;;;12.83;78.74
45441;BME280;31189;38.790;-77.084;2022-12-31T04:49:42;101949.23;;;13.57;70.65
45441;BME280;31189;38.790;-77.084;2022-12-31T04:52:15;101943.99;;;13.31;71.34
45441;BME280;31189;38.790;-77.084;2022-12-31T04:54:48;101942.54;;;12.97;75.01
45441;BME280;31189;38.790;-77.084;2022-12-31T04:57:26;101949.76;;;14.26;65.97
45441;BME280;31189;38.790;-77.084;2022-12-31T04:59:59;101949.27;;;13.24;66.30
45441;BME280;31189;38.790;-77.084;2022-12-31T05:02:32;101954.13;;;13.16;66.36
45441;BME280;31189;38.790;-77.084;2022-12-31T05:05:06;101960.65;;;13.18;65.47
45441;BME280;31189;38.790;-77.084;2022-12-31T05:07:44;101964.89;;;13.07;65.82
45441;BME280;31189;38.790;-77.084;2022-12-31T05:10:17;101964.73;;;12.94;68.34
45441;BME280;31189;38.790;-77.084;2022-12-31T05:12:50;101966.51;;;12.16;68.76
45441;BME280;31189;38.790;-77.084;2022-12-31T05:15:23;101965.52;;;12.39;68.27
45441;BME280;31189;38.790;-77.084;2022-12-31T05:18:00;101962.39;;;12.78;69.24
45441;BME280;31189;38.790;-77.084;2022-12-31T05:20:34;101952.00;;;12.76;70.79
45441;BME280;31189;38.790;-77.084;2022-12-31T05:23:07;101946.73;;;12.51;71.06
45441;BME280;31189;38.790;-77.084;2022-12-31T05:25:42;101938.20;;;11.94;67.71
45441;BME280;31189;38.790;-77.084;2022-12-31T05:28:21;101933.46;;;12.30;70.47
45441;BME280;31189;38.790;-77.084;2022-12-31T05:30:54;101924.97;;;11.96;67.82
45441;BME280;31189;38.790;-77.084;2022-12-31T05:33:26;101917.98;;;12.63;64.36
45441;BME280;31189;38.790;-77.084;2022-12-31T05:36:04;101905.68;;;12.89;65.38
45441;BME280;31189;38.790;-77.084;2022-12-31T05:38:37;101899.02;;;12.51;63.63
45441;BME280;31189;38.790;-77.084;2022-12-31T05:41:11;101898.06;;;12.13;63.53
45441;BME280;31189;38.790;-77.084;2022-12-31T05:43:40;101896.93;;;12.27;62.58
45441;BME280;31189;38.790;-77.084;2022-12-31T05:46:12;101893.57;;;12.22;64.83
45441;BME280;31189;38.790;-77.084;2022-12-31T05:48:51;101894.44;;;12.83;63.98
45441;BME280;31189;38.790;-77.084;2022-12-31T05:51:24;101893.65;;;12.29;66.04
45441;BME280;31189;38.790;-77.084;2022-12-31T05:53:56;101889.85;;;11.96;66.65
45441;BME280;31189;38.790;-77.084;2022-12-31T05:56:29;101885.08;;;12.12;65.57
45441;BME280;31189;38.790;-77.084;2022-12-31T05:59:07;101879.06;;;12.67;64.72
45441;BME280;31189;38.790;-77.084;2022-12-31T06:01:40;101870.11;;;12.33;62.49
45441;BME280;31189;38.790;-77.084;2022-12-31T06:04:12;101871.39;;;12.00;60.70
45441;BME280;31189;38.790;-77.084;2022-12-31T06:06:45;101876.83;;;10.93;67.13
45441;BME280;31189;38.790;-77.084;2022-12-31T06:09:18;101881.94;;;11.37;72.75
45441;BME280;31189;38.790;-77.084;2022-12-31T06:11:51;101879.68;;;11.69;72.04
45441;BME280;31189;38.790;-77.084;2022-12-31T06:14:24;101881.32;;;12.00;71.18
45441;BME280;31189;38.790;-77.084;2022-12-31T06:16:57;101883.77;;;11.73;73.38
45441;BME280;31189;38.790;-77.084;2022-12-31T06:19:30;101884.74;;;11.43;81.54
45441;BME280;31189;38.790;-77.084;2022-12-31T06:22:03;101885.15;;;12.12;79.38
45441;BME280;31189;38.790;-77.084;2022-12-31T06:24:36;101883.25;;;12.09;73.30
45441;BME280;31189;38.790;-77.084;2022-12-31T06:27:14;101882.82;;;12.57;67.90
45441;BME280;31189;38.790;-77.084;2022-12-31T06:29:46;101888.30;;;11.97;63.94
45441;BME280;31189;38.790;-77.084;2022-12-31T06:32:19;101890.98;;;11.93;64.55
45441;BME280;31189;38.790;-77.084;2022-12-31T06:34:53;101896.20;;;12.48;62.64
45441;BME280;31189;38.790;-77.084;2022-12-31T06:37:30;101901.23;;;12.56;62.72
45441;BME280;31189;38.790;-77.084;2022-12-31T06:40:04;101898.62;;;12.36;60.64
45441;BME280;31189;38.790;-77.084;2022-12-31T06:42:32;101888.90;;;12.19;61.99
45441;BME280;31189;38.790;-77.084;2022-12-31T06:45:07;101874.38;;;11.38;64.55
45441;BME280;31189;38.790;-77.084;2022-12-31T06:47:45;101859.33;;;12.67;62.64
45441;BME280;31189;38.790;-77.084;2022-12-31T06:50:18;101859.61;;;11.92;62.15
45441;BME280;31189;38.790;-77.084;2022-12-31T06:52:51;101859.72;;;11.82;60.64
45441;BME280;31189;38.790;-77.084;2022-12-31T06:55:25;101863.33;;;11.57;66.17
45441;BME280;31189;38.790;-77.084;2022-12-31T06:58:03;101865.41;;;11.99;77.25
45441;BME280;31189;38.790;-77.084;2022-12-31T07:00:31;101861.47;;;11.45;75.79
45441;BME280;31189;38.790;-77.084;2022-12-31T07:03:28;101851.41;;;11.20;90.92
45441;BME280;31189;38.790;-77.084;2022-12-31T07:06:09;101840.81;;;11.98;89.39
45441;BME280;31189;38.790;-77.084;2022-12-31T07:08:53;101843.56;;;11.31;100.00
45441;BME280;31189;38.790;-77.084;2022-12-31T07:11:26;101836.34;;;12.13;100.00
45441;BME280;31189;38.790;-77.084;2022-12-31T07:14:19;101832.64;;;13.14;91.38
45441;BME280;31189;38.790;-77.084;2022-12-31T07:17:04;101832.27;;;13.12;81.02
45441;BME280;31189;38.790;-77.084;2022-12-31T07:19:47;101828.46;;;13.19;73.55
45441;BME280;31189;38.790;-77.084;2022-12-31T07:22:19;101825.96;;;13.71;71.93
45441;BME280;31189;38.790;-77.084;2022-12-31T07:24:53;101830.74;;;13.20;70.91
45441;BME280;31189;38.790;-77.084;2022-12-31T07:27:38;101823.69;;;13.25;69.24
45441;BME280;31189;38.790;-77.084;2022-12-31T07:30:16;101820.15;;;13.20;64.01
45441;BME280;31189;38.790;-77.084;2022-12-31T07:33:11;101819.96;;;13.36;62.94
45441;BME280;31189;38.790;-77.084;2022-12-31T07:36:00;101821.99;;;14.24;64.88
45441;BME280;31189;38.790;-77.084;2022-12-31T07:38:41;101813.75;;;13.38;64.10
45441;BME280;31189;38.790;-77.084;2022-12-31T07:41:39;101805.80;;;13.79;63.80
45441;BME280;31189;38.790;-77.084;2022-12-31T07:44:26;101796.38;;;13.18;61.57
45441;BME280;31189;38.790;-77.084;2022-12-31T07:47:03;101795.39;;;13.24;63.17
45441;BME280;31189;38.790;-77.084;2022-12-31T07:49:42;101787.44;;;13.88;64.16
45441;BME280;31189;38.790;-77.084;2022-12-31T07:52:17;101777.27;;;13.74;64.19
45441;BME280;31189;38.790;-77.084;2022-12-31T07:54:50;101776.78;;;13.28;65.65
45441;BME280;31189;38.790;-77.084;2022-12-31T07:57:35;101777.66;;;13.81;66.93
45441;BME280;31189;38.790;-77.084;2022-12-31T08:00:15;101782.99;;;13.09;64.13
45441;BME280;31189;38.790;-77.084;2022-12-31T08:03:01;101770.19;;;12.27;62.80
45441;BME280;31189;38.790;-77.084;2022-12-31T08:05:35;101759.84;;;13.11;63.31
45441;BME280;31189;38.790;-77.084;2022-12-31T08:08:22;101764.52;;;11.75;71.06
45441;BME280;31189;38.790;-77.084;2022-12-31T08:11:07;101762.45;;;12.21;71.96
45441;BME280;31189;38.790;-77.084;2022-12-31T08:13:43;101762.65;;;12.96;69.15
45441;BME280;31189;38.790;-77.084;2022-12-31T08:16:17;101765.15;;;12.03;73.74
45441;BME280;31189;38.790;-77.084;2022-12-31T08:18:51;101771.57;;;12.62;68.06
45441;BME280;31189;38.790;-77.084;2022-12-31T08:21:38;101762.23;;;13.10;66.65
45441;BME280;31189;38.790;-77.084;2022-12-31T08:24:21;101761.79;;;13.15;66.24
45441;BME280;31189;38.790;-77.084;2022-12-31T08:27:06;101756.17;;;13.09;63.48
45441;BME280;31189;38.790;-77.084;2022-12-31T08:29:53;101737.84;;;13.51;63.24
45441;BME280;31189;38.790;-77.084;2022-12-31T08:32:37;101731.63;;;14.20;61.72
45441;BME280;31189;38.790;-77.084;2022-12-31T08:35:29;101727.77;;;13.63;64.43
45441;BME280;31189;38.790;-77.084;2022-12-31T08:38:15;101731.76;;;12.96;66.18
45441;BME280;31189;38.790;-77.084;2022-12-31T08:40:53;101735.12;;;12.10;68.60
45441;BME280;31189;38.790;-77.084;2022-12-31T08:43:44;101741.34;;;13.11;63.90
45441;BME280;31189;38.790;-77.084;2022-12-31T08:46:24;101736.77;;;13.66;61.10
45441;BME280;31189;38.790;-77.084;2022-12-31T08:48:58;101732.74;;;12.47;64.81
45441;BME280;31189;38.790;-77.084;2022-12-31T08:51:37;101722.71;;;13.66;64.22
45441;BME280;31189;38.790;-77.084;2022-12-31T08:54:08;101715.39;;;12.79;66.44
45441;BME280;31189;38.790;-77.084;2022-12-31T08:56:47;101708.55;;;13.17;67.98
45441;BME280;31189;38.790;-77.084;2022-12-31T08:59:32;101710.51;;;13.30;64.70
45441;BME280;31189;38.790;-77.084;2022-12-31T09:02:28;101705.38;;;13.11;62.51
45441;BME280;31189;38.790;-77.084;2022-12-31T09:05:17;101690.76;;;13.04;64.27
45441;BME280;31189;38.790;-77.084;2022-12-31T09:08:03;101692.88;;;12.67;65.77
45441;BME280;31189;38.790;-77.084;2022-12-31T09:10:45;101691.81;;;12.96;65.67
45441;BME280;31189;38.790;-77.084;2022-12-31T09:13:27;101691.48;;;12.60;65.80
45441;BME280;31189;38.790;-77.084;2022-12-31T09:16:14;101690.71;;;13.64;65.76
45441;BME280;31189;38.790;-77.084;2022-12-31T09:18:55;101691.93;;;12.53;68.32
45441;BME280;31189;38.790;-77.084;2022-12-31T09:21:28;101694.11;;;13.18;63.83
45441;BME280;31189;38.790;-77.084;2022-12-31T09:24:02;101695.93;;;12.98;63.77
45441;BME280;31189;38.790;-77.084;2022-12-31T09:26:49;101697.81;;;13.60;61.86
45441;BME280;31189;38.790;-77.084;2022-12-31T09:29:36;101694.13;;;13.07;62.63
45441;BME280;31189;38.790;-77.084;2022-12-31T09:32:20;101691.18;;;12.98;64.47
45441;BME280;31189;38.790;-77.084;2022-12-31T09:34:59;101686.75;;;12.78;66.08
45441;BME280;31189;38.790;-77.084;2022-12-31T09:37:44;101690.33;;;12.95;64.90
45441;BME280;31189;38.790;-77.084;2022-12-31T09:40:39;101692.05;;;12.00;66.86
45441;BME280;31189;38.790;-77.084;2022-12-31T09:43:43;101686.90;;;13.61;61.16
45441;BME280;31189;38.790;-77.084;2022-12-31T09:46:31;101687.26;;;13.51;61.72
45441;BME280;31189;38.790;-77.084;2022-12-31T09:49:34;101695.38;;;14.14;61.66
45441;BME280;31189;38.790;-77.084;2022-12-31T09:52:20;101707.44;;;13.20;62.50
45441;BME280;31189;38.790;-77.084;2022-12-31T09:55:16;101706.96;;;13.71;62.35
45441;BME280;31189;38.790;-77.084;2022-12-31T09:58:00;101692.67;;;13.58;64.23
45441;BME280;31189;38.790;-77.084;2022-12-31T10:00:35;101679.71;;;12.12;90.30
45441;BME280;31189;38.790;-77.084;2022-12-31T10:03:24;101674.99;;;11.89;100.00
45441;BME280;31189;38.790;-77.084;2022-12-31T10:06:21;101665.41;;;12.05;100.00
45441;BME280;31189;38.790;-77.084;2022-12-31T10:09:26;101649.09;;;12.83;100.00
45441;BME280;31189;38.790;-77.084;2022-12-31T10:12:17;101656.67;;;12.89;100.00
45441;BME280;31189;38.790;-77.084;2022-12-31T10:15:07;101666.94;;;13.09;100.00
45441;BME280;31189;38.790;-77.084;2022-12-31T10:17:50;101668.88;;;13.83;100.00
45441;BME280;31189;38.790;-77.084;2022-12-31T10:21:07;101665.68;;;11.85;100.00
45441;BME280;31189;38.790;-77.084;2022-12-31T10:24:40;101649.63;;;12.74;100.00
45441;BME280;31189;38.790;-77.084;2022-12-31T10:27:34;101655.11;;;14.06;100.00
45441;BME280;31189;38.790;-77.084;2022-12-31T10:30:14;101650.15;;;14.17;98.19
45441;BME280;31189;38.790;-77.084;2022-12-31T10:32:48;101649.71;;;13.95;98.72
45441;BME280;31189;38.790;-77.084;2022-12-31T10:35:28;101662.06;;;14.46;93.24
45441;BME280;31189;38.790;-77.084;2022-12-31T10:38:18;101663.33;;;14.30;95.18
45441;BME280;31189;38.790;-77.084;2022-12-31T10:42:01;101652.96;;;14.35;98.12
45441;BME280;31189;38.790;-77.084;2022-12-31T10:45:03;101664.05;;;12.74;99.61
45441;BME280;31189;38.790;-77.084;2022-12-31T10:48:05;101670.21;;;13.99;91.66
45441;BME280;31189;38.790;-77.084;2022-12-31T10:50:52;101660.71;;;14.63;88.13
45441;BME280;31189;38.790;-77.084;2022-12-31T10:53:55;101655.73;;;14.64;96.33
45441;BME280;31189;38.790;-77.084;2022-12-31T10:56:47;101647.30;;;14.37;100.00
45441;BME280;31189;38.790;-77.084;2022-12-31T10:59:51;101645.95;;;15.41;98.83
45441;BME280;31189;38.790;-77.084;2022-12-31T11:03:55;101628.85;;;15.28;100.00
45441;BME280;31189;38.790;-77.084;2022-12-31T11:07:01;101620.55;;;14.89;98.77
45441;BME280;31189;38.790;-77.084;2022-12-31T11:10:13;101617.76;;;14.21;96.97
45441;BME280;31189;38.790;-77.084;2022-12-31T11:13:15;101609.46;;;14.58;93.66
45441;BME280;31189;38.790;-77.084;2022-12-31T11:16:08;101603.00;;;13.95;93.18
45441;BME280;31189;38.790;-77.084;2022-12-31T11:18:54;101600.48;;;14.60;84.10
45441;BME280;31189;38.790;-77.084;2022-12-31T11:21:42;101603.30;;;14.83;84.02
45441;BME280;31189;38.790;-77.084;2022-12-31T11:24:27;101610.37;;;14.72;85.79
45441;BME280;31189;38.790;-77.084;2022-12-31T11:27:12;101615.48;;;14.49;88.14
45441;BME280;31189;38.790;-77.084;2022-12-31T11:29:57;101618.21;;;13.99;90.64
45441;BME280;31189;38.790;-77.084;2022-12-31T11:32:40;101617.92;;;13.02;100.00
45441;BME280;31189;38.790;-77.084;2022-12-31T11:35:21;101612.92;;;13.20;100.00
45441;BME280;31189;38.790;-77.084;2022-12-31T11:38:04;101606.40;;;13.18;100.00
45441;BME280;31189;38.790;-77.084;2022-12-31T11:40:56;101619.17;;;13.21;100.00
45441;BME280;31189;38.790;-77.084;2022-12-31T11:43:33;101622.57;;;13.49;100.00
45441;BME280;31189;38.790;-77.084;2022-12-31T11:46:36;101618.34;;;13.48;100.00
45441;BME280;31189;38.790;-77.084;2022-12-31T11:49:20;101615.96;;;14.12;100.00
45441;BME280;31189;38.790;-77.084;2022-12-31T11:52:24;101624.01;;;13.47;100.00
45441;BME280;31189;38.790;-77.084;2022-12-31T11:55:14;101624.45;;;13.37;100.00
45441;BME280;31189;38.790;-77.084;2022-12-31T11:57:51;101627.07;;;13.78;100.00
45441;BME280;31189;38.790;-77.084;2022-12-31T12:00:22;101623.68;;;13.13;100.00
45441;BME280;31189;38.790;-77.084;2022-12-31T12:02:57;101619.22;;;11.21;100.00
45441;BME280;31189;38.790;-77.084;2022-12-31T12:05:26;101612.31;;;11.66;100.00
45441;BME280;31189;38.790;-77.084;2022-12-31T12:08:05;101619.37;;;12.36;100.00
45441;BME280;31189;38.790;-77.084;2022-12-31T12:10:39;101621.59;;;12.64;100.00
45441;BME280;31189;38.790;-77.084;2022-12-31T12:13:20;101613.08;;;13.45;100.00
45441;BME280;31189;38.790;-77.084;2022-12-31T12:15:55;101606.36;;;11.90;100.00
45441;BME280;31189;38.790;-77.084;2022-12-31T12:18:34;101602.31;;;12.37;100.00
45441;BME280;31189;38.790;-77.084;2022-12-31T12:21:10;101599.94;;;11.43;100.00
45441;BME280;31189;38.790;-77.084;2022-12-31T12:23:55;101599.78;;;10.99;100.00
45441;BME280;31189;38.790;-77.084;2022-12-31T12:26:28;101593.70;;;10.42;100.00
45441;BME280;31189;38.790;-77.084;2022-12-31T12:29:09;101576.77;;;11.54;100.00
45441;BME280;31189;38.790;-77.084;2022-12-31T12:31:54;101559.03;;;11.86;100.00
45441;BME280;31189;38.790;-77.084;2022-12-31T12:34:28;101541.67;;;11.72;100.00
45441;BME280;31189;38.790;-77.084;2022-12-31T12:37:03;101537.92;;;11.20;100.00
45441;BME280;31189;38.790;-77.084;2022-12-31T12:39:37;101538.52;;;11.51;100.00
45441;BME280;31189;38.790;-77.084;2022-12-31T12:42:09;101528.03;;;11.70;100.00
45441;BME280;31189;38.790;-77.084;2022-12-31T12:44:43;101520.68;;;11.84;100.00
45441;BME280;31189;38.790;-77.084;2022-12-31T12:47:18;101512.66;;;10.48;100.00
45441;BME280;31189;38.790;-77.084;2022-12-31T12:49:53;101507.11;;;11.37;100.00
45441;BME280;31189;38.790;-77.084;2022-12-31T12:52:42;101505.08;;;11.64;100.00
45441;BME280;31189;38.790;-77.084;2022-12-31T12:55:22;101515.46;;;11.05;100.00
45441;BME280;31189;38.790;-77.084;2022-12-31T12:57:59;101512.89;;;10.37;100.00
45441;BME280;31189;38.790;-77.084;2022-12-31T13:00:31;101512.88;;;10.89;100.00
45441;BME280;31189;38.790;-77.084;2022-12-31T13:03:21;101510.39;;;10.82;100.00
45441;BME280;31189;38.790;-77.084;2022-12-31T13:06:13;101502.96;;;11.74;100.00
45441;BME280;31189;38.790;-77.084;2022-12-31T13:09:03;101498.12;;;11.15;100.00
45441;BME280;31189;38.790;-77.084;2022-12-31T13:11:54;101492.61;;;11.04;100.00
45441;BME280;31189;38.790;-77.084;2022-12-31T13:14:36;101493.87;;;11.82;100.00
45441;BME280;31189;38.790;-77.084;2022-12-31T13:17:31;101495.35;;;11.55;100.00
45441;BME280;31189;38.790;-77.084;2022-12-31T13:20:12;101499.34;;;11.95;100.00
45441;BME280;31189;38.790;-77.084;2022-12-31T13:22:53;101498.73;;;11.68;100.00
45441;BME280;31189;38.790;-77.084;2022-12-31T13:25:41;101495.28;;;11.97;100.00
45441;BME280;31189;38.790;-77.084;2022-12-31T13:28:15;101493.63;;;13.10;100.00
45441;BME280;31189;38.790;-77.084;2022-12-31T13:30:51;101493.71;;;11.38;100.00